Time;durP1;ratioP1;P1;durP2;ratioP2;P2;SDS_P1;SDS_P2;PMS_P1;PMS_P2;Temp;Humidity;BMP_temperature;BMP_pressure;BME280_temperature;BME280_humidity;BME280_pressure;Samples;Min_cycle;Max_cycle;Signal;HPM_P1;HPM_P2
2023/06/25 00:00:38;;;;;;;10.48;8.25;;;22.30;51.30;;;;;;4983818;28;114297;-80
2023/06/25 00:03:06;;;;;;;11.00;8.85;;;22.30;51.70;;;;;;4967590;28;115941;-80
2023/06/25 00:05:34;;;;;;;8.15;6.80;;;22.30;51.60;;;;;;4967237;28;115998;-80
2023/06/25 00:08:01;;;;;;;8.63;7.07;;;22.30;52.20;;;;;;4983240;28;114444;-80
2023/06/25 00:10:28;;;;;;;9.63;7.78;;;22.30;52.30;;;;;;4979017;28;114190;-80
2023/06/25 00:12:55;;;;;;;10.65;7.82;;;22.30;51.80;;;;;;5002600;28;115295;-80
2023/06/25 00:15:22;;;;;;;9.30;7.30;;;22.30;51.80;;;;;;4987405;28;114752;-81
2023/06/25 00:17:49;;;;;;;9.35;7.05;;;22.30;52.10;;;;;;4987571;28;114396;-80
2023/06/25 00:20:17;;;;;;;8.25;7.38;;;22.30;52.00;;;;;;5003541;28;114184;-80
2023/06/25 00:22:44;;;;;;;12.82;8.93;;;22.30;51.90;;;;;;5002225;28;115055;-80
2023/06/25 00:25:36;;;;;;;8.90;6.93;;;22.30;51.60;;;;;;4999845;28;114660;-80
2023/06/25 00:28:08;;;;;;;10.60;8.45;;;22.30;51.90;;;;;;5002941;28;114475;-80
2023/06/25 00:30:36;;;;;;;10.15;8.13;;;22.30;51.80;;;;;;4987907;28;114709;-80
2023/06/25 00:33:04;;;;;;;7.70;6.50;;;22.30;51.70;;;;;;4984927;28;115187;-80
2023/06/25 00:35:44;;;;;;;8.38;6.70;;;22.30;52.10;;;;;;4982346;28;115771;-80
2023/06/25 00:38:11;;;;;;;16.42;11.30;;;22.30;51.90;;;;;;4966669;28;114466;-80
2023/06/25 00:40:38;;;;;;;9.43;7.65;;;22.20;50.10;;;;;;4967928;28;114304;-80
2023/06/25 00:43:05;;;;;;;9.50;7.43;;;22.10;51.70;;;;;;4966269;28;116105;-80
2023/06/25 00:45:33;;;;;;;8.10;6.57;;;22.10;51.90;;;;;;4966894;28;114669;-80
2023/06/25 00:48:02;;;;;;;10.20;7.25;;;22.10;52.30;;;;;;4983080;28;114249;-81
2023/06/25 00:50:29;;;;;;;7.75;6.68;;;22.20;51.70;;;;;;4981940;28;114480;-80
2023/06/25 00:52:57;;;;;;;10.60;7.28;;;22.10;51.80;;;;;;4966807;28;114961;-79
2023/06/25 00:55:24;;;;;;;11.82;8.00;;;22.00;52.00;;;;;;4965484;28;114800;-80
2023/06/25 00:57:52;;;;;;;10.88;7.43;;;22.00;51.30;;;;;;4966916;28;114343;-80
2023/06/25 01:00:20;;;;;;;9.10;6.28;;;22.00;51.80;;;;;;4966785;28;114258;-81
2023/06/25 01:03:00;;;;;;;7.82;6.63;;;22.00;52.00;;;;;;4966705;28;114887;-80
2023/06/25 01:05:46;;;;;;;9.00;6.70;;;22.00;51.80;;;;;;4965168;28;115508;-80
2023/06/25 01:08:13;;;;;;;10.07;7.30;;;22.00;52.00;;;;;;4965469;28;114280;-80
2023/06/25 01:10:41;;;;;;;7.93;6.60;;;22.00;51.70;;;;;;4950196;28;114473;-80
2023/06/25 01:13:08;;;;;;;8.00;6.72;;;22.00;51.60;;;;;;4981473;28;116570;-81
2023/06/25 01:15:35;;;;;;;10.43;6.35;;;22.00;51.70;;;;;;4966315;28;114779;-81
2023/06/25 01:18:04;;;;;;;7.63;6.70;;;22.00;51.70;;;;;;4967115;28;114083;-82
2023/06/25 01:20:31;;;;;;;9.05;6.63;;;22.00;51.70;;;;;;4982124;28;114287;-81
2023/06/25 01:22:59;;;;;;;7.40;6.07;;;22.10;51.20;;;;;;4981479;28;114973;-81
2023/06/25 01:25:38;;;;;;;8.00;6.03;;;22.00;51.40;;;;;;4967068;28;114689;-80
2023/06/25 01:28:05;;;;;;;8.10;5.72;;;22.10;51.50;;;;;;4985997;28;114118;-81
2023/06/25 01:30:32;;;;;;;7.55;5.85;;;22.00;51.90;;;;;;4986718;28;114275;-81
2023/06/25 01:33:00;;;;;;;8.63;6.00;;;22.00;51.80;;;;;;4964302;28;117098;-80
2023/06/25 01:35:27;;;;;;;9.43;6.40;;;22.00;51.50;;;;;;4964918;28;114559;-79
2023/06/25 01:37:58;;;;;;;7.40;5.80;;;22.10;51.20;;;;;;4949357;28;114361;-79
2023/06/25 01:40:26;;;;;;;8.35;6.53;;;22.10;51.70;;;;;;4981962;28;114383;-80
2023/06/25 01:42:54;;;;;;;6.82;6.13;;;22.10;51.00;;;;;;4964862;28;115172;-80
2023/06/25 01:45:21;;;;;;;6.22;5.30;;;22.00;51.20;;;;;;4965946;28;114606;-80
2023/06/25 01:47:50;;;;;;;7.82;6.13;;;22.10;51.40;;;;;;4966654;28;114452;-80
2023/06/25 01:50:17;;;;;;;8.75;5.97;;;22.10;51.40;;;;;;4967371;28;114207;-81
2023/06/25 01:52:47;;;;;;;8.25;5.35;;;22.10;51.20;;;;;;4980787;28;114947;-81
2023/06/25 01:55:16;;;;;;;7.07;5.32;;;22.10;51.20;;;;;;4980946;28;114849;-81
2023/06/25 01:57:44;;;;;;;8.25;5.68;;;22.10;51.30;;;;;;4964296;28;114363;-81
2023/06/25 02:00:12;;;;;;;7.82;5.55;;;22.10;50.80;;;;;;4975460;28;114405;-81
2023/06/25 02:02:43;;;;;;;11.93;6.82;;;22.10;51.00;;;;;;4964492;28;114967;-81
2023/06/25 02:05:11;;;;;;;8.68;6.72;;;22.00;49.80;;;;;;4964576;28;114561;-81
2023/06/25 02:07:38;;;;;;;6.97;5.53;;;21.90;50.20;;;;;;4976929;28;114244;-80
2023/06/25 02:10:06;;;;;;;7.50;5.78;;;21.80;51.10;;;;;;4966607;28;114276;-80
2023/06/25 02:12:33;;;;;;;6.50;5.25;;;21.80;51.40;;;;;;4964525;28;114970;-80
2023/06/25 02:15:00;;;;;;;9.65;6.47;;;21.80;51.40;;;;;;4964951;28;114994;-81
2023/06/25 02:17:28;;;;;;;7.95;5.80;;;21.80;50.70;;;;;;4966472;28;114460;-81
2023/06/25 02:19:55;;;;;;;7.10;5.40;;;21.80;51.30;;;;;;4966515;28;114270;-81
2023/06/25 02:22:23;;;;;;;9.80;6.78;;;21.80;51.40;;;;;;4964619;28;115981;-80
2023/06/25 02:24:51;;;;;;;7.90;5.32;;;21.80;50.60;;;;;;4932666;28;117568;-81
2023/06/25 02:27:19;;;;;;;6.70;5.32;;;21.80;51.30;;;;;;4977568;28;114234;-80
2023/06/25 02:29:49;;;;;;;7.28;5.28;;;21.80;51.10;;;;;;4964980;28;114429;-80
2023/06/25 02:32:20;;;;;;;6.80;4.88;;;21.80;51.20;;;;;;4965527;28;114914;-81
2023/06/25 02:34:47;;;;;;;7.25;5.47;;;21.70;51.40;;;;;;4964400;28;117174;-81
2023/06/25 02:37:15;;;;;;;7.15;5.28;;;21.80;51.20;;;;;;4965164;28;114237;-80
2023/06/25 02:39:42;;;;;;;9.57;5.80;;;21.80;50.30;;;;;;4981706;28;114212;-80
2023/06/25 02:42:09;;;;;;;9.13;5.60;;;21.80;50.70;;;;;;4965056;28;115009;-80
2023/06/25 02:44:36;;;;;;;6.63;4.55;;;21.80;50.20;;;;;;4965088;28;114726;-80
2023/06/25 02:47:04;;;;;;;6.57;4.65;;;21.80;51.00;;;;;;4956687;28;115062;-80
2023/06/25 02:49:32;;;;;;;9.25;4.90;;;21.80;50.80;;;;;;4965098;28;114353;-80
2023/06/25 02:51:59;;;;;;;8.43;5.57;;;21.80;51.10;;;;;;4947569;28;117785;-80
2023/06/25 02:54:26;;;;;;;9.45;6.55;;;21.80;50.40;;;;;;4965148;28;115843;-78
2023/06/25 02:56:56;;;;;;;7.72;5.13;;;21.80;50.10;;;;;;4964462;28;114469;-80
2023/06/25 02:59:23;;;;;;;6.88;5.25;;;21.80;50.50;;;;;;4964609;28;114255;-78
2023/06/25 03:01:50;;;;;;;9.38;6.00;;;21.80;50.90;;;;;;4964140;28;115041;-79
2023/06/25 03:04:17;;;;;;;6.47;5.05;;;21.80;49.90;;;;;;4978639;28;114911;-82
2023/06/25 03:06:46;;;;;;;8.05;5.53;;;21.80;50.70;;;;;;4981050;28;115232;-81
2023/06/25 03:09:13;;;;;;;10.48;8.13;;;21.80;50.20;;;;;;4948380;28;114422;-80
2023/06/25 03:11:40;;;;;;;6.15;4.80;;;21.80;48.50;;;;;;4982796;28;115357;-80
2023/06/25 03:14:13;;;;;;;8.65;5.57;;;21.70;50.30;;;;;;4967232;28;114623;-80
2023/06/25 03:17:02;;;;;;;6.93;4.90;;;21.70;50.30;;;;;;4974981;28;114107;-79
2023/06/25 03:19:30;;;;;;;7.78;5.43;;;21.60;51.00;;;;;;5004549;28;114082;-79
2023/06/25 03:21:58;;;;;;;6.97;4.53;;;21.70;50.30;;;;;;4994629;28;114382;-79
2023/06/25 03:24:26;;;;;;;8.00;5.63;;;21.70;50.70;;;;;;4983236;28;114643;-80
2023/06/25 03:26:53;;;;;;;6.80;4.80;;;21.70;50.00;;;;;;4984180;28;114374;-80
2023/06/25 03:29:23;;;;;;;6.47;5.30;;;21.70;50.60;;;;;;5000971;28;114482;-81
2023/06/25 03:31:50;;;;;;;7.30;4.85;;;21.70;50.50;;;;;;4984783;28;115086;-80
2023/06/25 03:34:21;;;;;;;6.55;5.03;;;21.80;50.50;;;;;;4983094;28;114767;-80
2023/06/25 03:36:51;;;;;;;6.05;4.53;;;21.80;50.40;;;;;;4983320;28;114544;-81
2023/06/25 03:39:18;;;;;;;6.55;4.82;;;21.80;50.60;;;;;;4984004;28;114387;-80
2023/06/25 03:41:45;;;;;;;5.95;4.80;;;21.80;50.50;;;;;;4983606;28;114912;-80
2023/06/25 03:44:13;;;;;;;6.68;5.05;;;21.90;50.50;;;;;;4986514;28;115531;-80
2023/06/25 03:46:40;;;;;;;6.72;4.65;;;22.00;50.10;;;;;;4988548;28;114338;-80
2023/06/25 03:49:07;;;;;;;9.25;5.78;;;22.00;50.00;;;;;;4987587;28;114415;-80
2023/06/25 03:51:36;;;;;;;5.82;4.75;;;22.00;49.50;;;;;;4986051;28;115419;-79
2023/06/25 03:54:04;;;;;;;7.57;5.00;;;22.00;49.80;;;;;;4986748;28;114848;-80
2023/06/25 03:56:31;;;;;;;8.80;5.80;;;22.00;49.90;;;;;;4987153;28;114338;-81
2023/06/25 03:58:59;;;;;;;6.47;5.45;;;22.10;49.50;;;;;;4986756;28;115148;-80
2023/06/25 04:01:26;;;;;;;6.38;4.82;;;22.00;49.70;;;;;;4985640;28;114930;-80
2023/06/25 04:03:55;;;;;;;8.20;6.10;;;22.10;49.80;;;;;;4986836;28;116074;-80
2023/06/25 04:06:22;;;;;;;7.28;5.40;;;22.20;49.30;;;;;;4986887;28;115372;-79
2023/06/25 04:08:50;;;;;;;7.30;5.15;;;22.20;49.50;;;;;;5003658;28;114340;-80
2023/06/25 04:11:17;;;;;;;6.85;5.55;;;22.30;49.40;;;;;;4969951;28;116965;-81
2023/06/25 04:13:45;;;;;;;5.97;5.00;;;22.50;49.00;;;;;;4986270;28;114787;-81
2023/06/25 04:16:12;;;;;;;7.72;5.18;;;22.70;48.70;;;;;;4988250;28;114066;-82
2023/06/25 04:18:41;;;;;;;6.10;4.82;;;22.70;48.10;;;;;;4987386;28;114379;-82
2023/06/25 04:21:08;;;;;;;7.63;5.57;;;22.80;48.20;;;;;;4969282;28;117919;-81
2023/06/25 04:23:36;;;;;;;6.13;4.85;;;22.90;47.90;;;;;;4985963;28;115085;-80
2023/06/25 04:26:04;;;;;;;6.32;4.72;;;23.00;47.90;;;;;;4986235;28;114527;-80
2023/06/25 04:28:31;;;;;;;6.82;5.70;;;23.20;47.40;;;;;;4986854;28;114244;-81
2023/06/25 04:31:00;;;;;;;6.93;5.07;;;23.30;47.20;;;;;;4969028;28;118031;-81
2023/06/25 04:33:27;;;;;;;8.98;6.80;;;23.30;47.20;;;;;;4985503;28;116378;-79
2023/06/25 04:35:54;;;;;;;7.88;5.90;;;23.50;46.50;;;;;;4987113;28;114711;-79
2023/06/25 04:38:22;;;;;;;7.90;5.88;;;23.60;46.40;;;;;;4986853;28;114254;-81
2023/06/25 04:40:49;;;;;;;9.10;6.70;;;23.60;46.30;;;;;;4985791;28;114923;-79
2023/06/25 04:43:17;;;;;;;9.90;7.68;;;23.60;46.10;;;;;;4969207;28;117808;-79
2023/06/25 04:45:45;;;;;;;8.05;7.25;;;23.60;46.10;;;;;;4986906;28;114213;-79
2023/06/25 04:48:14;;;;;;;8.52;6.72;;;23.60;46.30;;;;;;4986675;28;114156;-79
2023/06/25 04:50:41;;;;;;;6.82;5.95;;;23.60;46.40;;;;;;4984861;28;115432;-80
2023/06/25 04:53:08;;;;;;;10.32;7.75;;;23.60;46.60;;;;;;4984927;28;114809;-80
2023/06/25 04:55:35;;;;;;;9.18;6.68;;;23.70;46.10;;;;;;4986249;28;114506;-80
2023/06/25 04:58:04;;;;;;;10.27;7.13;;;23.70;46.20;;;;;;4987530;28;114361;-79
2023/06/25 05:00:32;;;;;;;9.60;7.53;;;23.80;46.10;;;;;;4986473;28;114999;-80
2023/06/25 05:03:01;;;;;;;10.55;7.55;;;23.80;45.80;;;;;;4968983;28;117126;-80
2023/06/25 05:05:28;;;;;;;11.10;8.02;;;23.90;45.90;;;;;;4986546;28;114172;-80
2023/06/25 05:07:55;;;;;;;13.38;8.95;;;23.80;45.70;;;;;;4987819;28;114110;-79
2023/06/25 05:10:24;;;;;;;10.25;8.45;;;23.80;45.90;;;;;;4986846;28;114969;-79
2023/06/25 05:12:51;;;;;;;9.70;7.50;;;23.80;45.90;;;;;;4994060;28;114818;-80
2023/06/25 05:15:18;;;;;;;9.27;7.00;;;23.70;46.20;;;;;;5005433;28;113999;-80
2023/06/25 05:17:45;;;;;;;10.25;8.20;;;23.70;46.40;;;;;;4987449;28;114062;-81
2023/06/25 05:20:13;;;;;;;10.77;7.90;;;23.70;46.40;;;;;;4986587;28;115587;-81
2023/06/25 05:22:40;;;;;;;10.18;8.55;;;23.80;46.40;;;;;;4986309;28;114874;-80
2023/06/25 05:25:08;;;;;;;9.02;8.10;;;23.80;46.50;;;;;;4985955;28;114552;-81
2023/06/25 05:27:35;;;;;;;12.25;8.45;;;23.80;46.30;;;;;;4987016;28;114490;-80
2023/06/25 05:30:05;;;;;;;11.32;8.13;;;23.80;46.70;;;;;;4986501;28;114956;-80
2023/06/25 05:32:32;;;;;;;9.95;8.35;;;23.90;46.70;;;;;;5001646;28;114765;-80
2023/06/25 05:35:00;;;;;;;11.10;8.95;;;23.90;46.70;;;;;;5002562;28;114132;-80
2023/06/25 05:37:27;;;;;;;11.38;9.02;;;23.90;46.70;;;;;;4985851;28;114195;-80
2023/06/25 05:39:55;;;;;;;10.77;8.25;;;23.90;46.80;;;;;;4984364;28;118155;-79
2023/06/25 05:42:22;;;;;;;11.60;8.73;;;24.10;46.80;;;;;;4986148;28;114761;-80
2023/06/25 05:44:50;;;;;;;11.50;9.35;;;24.30;46.60;;;;;;4985871;28;114334;-79
2023/06/25 05:47:18;;;;;;;10.68;8.93;;;24.30;46.70;;;;;;4985655;28;114534;-80
2023/06/25 05:49:45;;;;;;;10.40;8.18;;;24.40;46.60;;;;;;4985993;28;115645;-80
2023/06/25 05:52:12;;;;;;;13.77;9.25;;;24.40;46.30;;;;;;4984793;28;114635;-79
2023/06/25 05:54:39;;;;;;;12.27;9.68;;;24.40;46.50;;;;;;4985614;28;114218;-80
2023/06/25 05:57:06;;;;;;;11.93;9.07;;;24.50;46.50;;;;;;4991993;28;114811;-80
2023/06/25 05:59:33;;;;;;;13.55;10.70;;;24.50;46.70;;;;;;4965255;28;116967;-81
2023/06/25 06:02:07;;;;;;;13.18;10.60;;;24.60;46.80;;;;;;4965717;28;114732;-80
2023/06/25 06:04:35;;;;;;;14.32;10.73;;;24.60;46.80;;;;;;4980433;28;114169;-81
2023/06/25 06:07:03;;;;;;;15.57;11.02;;;24.60;46.80;;;;;;4968191;28;114275;-81
2023/06/25 06:09:30;;;;;;;13.02;11.57;;;24.60;46.90;;;;;;4964348;28;117567;-80
2023/06/25 06:11:57;;;;;;;17.25;11.25;;;24.60;46.90;;;;;;4982621;28;115844;-80
2023/06/25 06:14:25;;;;;;;15.45;11.55;;;24.60;47.10;;;;;;4985619;28;114463;-80
2023/06/25 06:16:52;;;;;;;14.85;11.30;;;24.60;47.10;;;;;;4985345;28;114295;-80
2023/06/25 06:19:19;;;;;;;14.50;10.32;;;24.80;47.10;;;;;;4985471;28;115534;-79
2023/06/25 06:21:46;;;;;;;14.05;12.13;;;24.90;46.60;;;;;;4973047;28;118798;-79
2023/06/25 06:24:13;;;;;;;13.20;11.80;;;25.10;46.30;;;;;;4966202;28;114659;-78
2023/06/25 06:26:41;;;;;;;14.90;12.35;;;25.10;46.10;;;;;;4963753;28;115178;-80
2023/06/25 06:29:09;;;;;;;14.77;12.20;;;25.20;45.80;;;;;;4974772;28;114905;-80
2023/06/25 06:31:37;;;;;;;15.48;12.57;;;25.20;45.90;;;;;;4969062;28;114667;-79
2023/06/25 06:34:08;;;;;;;14.82;12.10;;;25.30;45.90;;;;;;4966349;28;114255;-79
2023/06/25 06:36:35;;;;;;;13.52;11.88;;;25.30;45.80;;;;;;4966104;28;114005;-80
2023/06/25 06:39:03;;;;;;;15.73;12.07;;;25.30;45.90;;;;;;4971799;28;116181;-79
2023/06/25 06:41:31;;;;;;;14.18;11.48;;;25.30;45.60;;;;;;4964206;28;114776;-79
2023/06/25 06:44:13;;;;;;;13.90;12.23;;;25.40;45.60;;;;;;4965486;28;114037;-79
2023/06/25 06:46:41;;;;;;;15.32;11.73;;;25.40;45.20;;;;;;4961055;28;114313;-80
2023/06/25 06:49:08;;;;;;;15.10;11.63;;;25.40;45.40;;;;;;4967678;28;116303;-80
2023/06/25 06:51:37;;;;;;;17.85;12.50;;;25.40;45.50;;;;;;4981919;28;114506;-80
2023/06/25 06:54:04;;;;;;;16.35;13.20;;;25.40;45.30;;;;;;4965697;28;114201;-80
2023/06/25 06:56:32;;;;;;;15.82;12.25;;;25.40;45.20;;;;;;4968589;28;114512;-80
2023/06/25 06:59:01;;;;;;;14.48;12.32;;;25.30;45.40;;;;;;4963618;28;115443;-80
2023/06/25 07:01:28;;;;;;;17.77;12.15;;;25.30;45.70;;;;;;4965015;28;114758;-80
2023/06/25 07:04:01;;;;;;;15.55;11.60;;;25.30;45.60;;;;;;4981236;28;114122;-80
2023/06/25 07:06:28;;;;;;;14.60;12.27;;;25.30;45.50;;;;;;4975712;28;114061;-79
2023/06/25 07:08:56;;;;;;;14.43;11.55;;;25.40;45.20;;;;;;4987116;28;113961;-79
2023/06/25 07:11:23;;;;;;;13.40;11.82;;;25.40;45.00;;;;;;4965286;28;114968;-79
2023/06/25 07:13:51;;;;;;;13.10;11.30;;;25.40;45.40;;;;;;4980537;28;114266;-79
2023/06/25 07:16:19;;;;;;;16.13;12.45;;;25.40;45.40;;;;;;4964710;28;114697;-80
2023/06/25 07:18:46;;;;;;;16.42;12.02;;;25.40;45.00;;;;;;4978100;28;115032;-80
2023/06/25 07:21:13;;;;;;;16.58;12.30;;;25.40;44.60;;;;;;4966625;28;114686;-81
2023/06/25 07:23:40;;;;;;;12.43;10.82;;;25.40;45.20;;;;;;4969909;28;114346;-79
2023/06/25 07:26:08;;;;;;;16.02;10.60;;;25.40;45.30;;;;;;4969865;28;114498;-80
2023/06/25 07:28:38;;;;;;;13.85;11.23;;;25.30;44.70;;;;;;4983216;28;114887;-78
2023/06/25 07:31:06;;;;;;;13.82;11.60;;;25.40;44.90;;;;;;4966984;28;115105;-79
2023/06/25 07:33:33;;;;;;;15.77;11.63;;;25.40;45.50;;;;;;4972567;28;114456;-80
2023/06/25 07:36:03;;;;;;;14.57;11.40;;;25.40;45.00;;;;;;4969088;28;115011;-78
2023/06/25 07:38:30;;;;;;;18.20;11.90;;;25.30;45.10;;;;;;4982771;28;117075;-78
2023/06/25 07:40:58;;;;;;;14.05;11.40;;;25.40;45.50;;;;;;4959491;28;115177;-78
2023/06/25 07:43:25;;;;;;;15.70;12.10;;;25.30;45.30;;;;;;4966476;28;116275;-79
2023/06/25 07:45:55;;;;;;;14.13;11.77;;;25.30;45.50;;;;;;4968660;28;114407;-78
2023/06/25 07:48:23;;;;;;;15.88;12.05;;;25.30;45.80;;;;;;4968126;28;114963;-78
2023/06/25 07:50:51;;;;;;;15.55;12.05;;;25.40;45.30;;;;;;4968196;28;115638;-79
2023/06/25 07:53:19;;;;;;;15.77;12.30;;;25.50;45.60;;;;;;4984005;28;114309;-79
2023/06/25 07:55:49;;;;;;;13.13;11.52;;;25.50;45.20;;;;;;4969074;28;114391;-79
2023/06/25 07:58:30;;;;;;;14.90;11.80;;;25.50;45.40;;;;;;4968107;28;114983;-79
2023/06/25 08:00:58;;;;;;;15.07;11.80;;;25.50;45.30;;;;;;4968449;28;114551;-78
2023/06/25 08:03:26;;;;;;;16.10;12.93;;;25.60;45.20;;;;;;4974486;28;114632;-79
2023/06/25 08:05:55;;;;;;;16.35;13.27;;;25.60;44.80;;;;;;4984581;28;114149;-80
2023/06/25 08:08:22;;;;;;;15.02;12.15;;;25.70;44.40;;;;;;4982480;28;114989;-79
2023/06/25 08:10:51;;;;;;;14.38;11.55;;;25.70;43.70;;;;;;4967791;28;114628;-80
2023/06/25 08:13:20;;;;;;;17.75;13.23;;;25.50;43.70;;;;;;4968706;28;114273;-79
2023/06/25 08:15:47;;;;;;;15.57;12.13;;;25.60;43.60;;;;;;4964008;28;114452;-79
2023/06/25 08:18:15;;;;;;;14.93;10.98;;;25.50;44.20;;;;;;4980306;28;115962;-79
2023/06/25 08:20:42;;;;;;;16.38;12.07;;;25.50;44.50;;;;;;4971022;28;114651;-78
2023/06/25 08:23:12;;;;;;;16.65;11.85;;;25.50;44.40;;;;;;4968256;28;114243;-80
2023/06/25 08:25:41;;;;;;;15.07;11.93;;;25.40;44.00;;;;;;4967657;28;114435;-81
2023/06/25 08:28:08;;;;;;;13.57;10.55;;;25.50;44.70;;;;;;4967933;28;115027;-78
2023/06/25 08:30:35;;;;;;;15.80;11.73;;;25.50;44.90;;;;;;4968716;28;114648;-79
2023/06/25 08:33:02;;;;;;;12.90;11.60;;;25.60;44.90;;;;;;4967451;28;114699;-78
2023/06/25 08:35:29;;;;;;;14.10;11.20;;;25.70;44.70;;;;;;4953674;28;114613;-79
2023/06/25 08:38:02;;;;;;;13.00;10.93;;;25.70;43.80;;;;;;4968727;28;116446;-79
2023/06/25 08:40:30;;;;;;;14.00;10.98;;;25.80;43.70;;;;;;4992824;28;114779;-81
2023/06/25 08:42:57;;;;;;;13.65;10.98;;;25.80;43.60;;;;;;4966644;28;114400;-80
2023/06/25 08:45:25;;;;;;;13.35;10.13;;;25.80;44.00;;;;;;4968048;28;114487;-80
2023/06/25 08:48:09;;;;;;;14.13;10.52;;;25.80;44.10;;;;;;4981816;28;115049;-79
2023/06/25 08:52:08;;;;;;;12.68;10.50;;;26.00;43.10;;;;;;5005013;28;114459;-78
2023/06/25 08:56:08;;;;;;;;;;;;;;;;;;;;;
2023/06/25 09:36:06;;;;;;;12.30;8.52;;;25.80;41.90;;;;;;5972170;23;114912;-77
2023/06/25 09:39:14;;;;;;;12.20;9.52;;;25.70;42.10;;;;;;5832957;23;114499;-80
2023/06/25 09:42:57;;;;;;;10.10;8.90;;;25.50;42.50;;;;;;5846847;23;115448;-80
2023/06/25 09:51:53;;;;;;;10.93;7.80;;;25.30;42.20;;;;;;5908936;23;114231;-80
2023/06/25 10:04:54;;;;;;;10.60;7.50;;;24.90;42.20;;;;;;5757692;24;114422;-78
2023/06/25 10:13:40;;;;;;;;;;;;;;;;;;;;;
2023/06/25 10:40:40;;;;;;;9.63;7.65;;;25.20;41.80;;;;;;5915581;23;115392;-80
2023/06/25 10:43:56;;;;;;;11.73;8.77;;;25.30;41.20;;;;;;6020029;23;116822;-77
2023/06/25 10:46:31;;;;;;;9.10;8.15;;;25.30;41.50;;;;;;6102312;22;114550;-78
2023/06/25 10:49:04;;;;;;;11.85;8.57;;;25.60;41.00;;;;;;6125802;22;114364;-78
2023/06/25 10:51:32;;;;;;;15.95;9.10;;;25.70;40.60;;;;;;6150692;22;114964;-78
2023/06/25 10:54:00;;;;;;;9.90;8.00;;;25.80;40.60;;;;;;6150677;22;114610;-78
2023/06/25 10:56:29;;;;;;;10.35;8.13;;;25.80;40.50;;;;;;6151833;22;115475;-78
2023/06/25 10:58:59;;;;;;;10.90;8.38;;;25.80;39.90;;;;;;6153391;22;114096;-78
2023/06/25 11:02:04;;;;;;;9.57;8.63;;;25.80;40.40;;;;;;6153358;22;116238;-79
2023/06/25 11:06:41;;;;;;;9.50;8.18;;;26.00;40.70;;;;;;6039573;23;114466;-78
2023/06/25 11:20:37;;;;;;;10.68;7.60;;;25.50;41.50;;;;;;5832771;24;114781;-79
2023/06/25 11:38:59;;;;;;;10.30;7.88;;;24.90;40.00;;;;;;5945900;23;115722;-80
2023/06/25 11:41:27;;;;;;;8.45;6.80;;;24.60;40.30;;;;;;5922395;23;117878;-80
2023/06/25 11:43:54;;;;;;;9.45;7.50;;;24.60;39.50;;;;;;5976069;23;115329;-77
2023/06/25 11:46:22;;;;;;;13.25;8.55;;;24.80;40.10;;;;;;6037343;23;114470;-77
2023/06/25 11:48:50;;;;;;;11.27;7.18;;;24.80;41.20;;;;;;6037969;23;114834;-77
2023/06/25 11:51:17;;;;;;;10.80;7.82;;;24.80;41.80;;;;;;6037092;23;115034;-79
2023/06/25 11:53:45;;;;;;;10.80;8.50;;;24.90;41.70;;;;;;6060356;23;114803;-78
2023/06/25 11:56:18;;;;;;;9.80;7.80;;;24.90;41.00;;;;;;6062193;23;114631;-79
2023/06/25 11:58:50;;;;;;;9.43;8.27;;;25.00;41.00;;;;;;6059704;23;114731;-77
2023/06/25 12:01:18;;;;;;;10.60;7.72;;;24.90;41.50;;;;;;6058581;23;115208;-79
2023/06/25 12:03:46;;;;;;;9.07;7.97;;;24.80;41.40;;;;;;6059975;23;114671;-76
2023/06/25 12:06:16;;;;;;;9.95;7.22;;;24.80;40.70;;;;;;6061670;23;115380;-79
2023/06/25 12:08:46;;;;;;;8.23;6.75;;;24.80;39.50;;;;;;6049788;23;114387;-78
2023/06/25 12:11:13;;;;;;;8.43;7.32;;;24.90;39.50;;;;;;6089478;23;114382;-79
2023/06/25 12:13:41;;;;;;;11.27;7.65;;;25.00;38.90;;;;;;6101942;22;116077;-81
2023/06/25 12:16:08;;;;;;;9.23;6.53;;;25.10;39.00;;;;;;6150869;22;115246;-80
2023/06/25 12:18:35;;;;;;;9.15;7.53;;;25.20;39.20;;;;;;6126165;22;114249;-82
2023/06/25 12:21:03;;;;;;;8.82;7.47;;;25.20;39.40;;;;;;6126209;22;114885;-78
2023/06/25 12:23:30;;;;;;;9.63;6.90;;;25.20;39.00;;;;;;6122747;22;116464;-78
2023/06/25 12:25:57;;;;;;;7.50;6.72;;;25.30;40.20;;;;;;6151606;22;114194;-78
2023/06/25 12:28:24;;;;;;;9.18;7.00;;;25.40;38.10;;;;;;6151553;22;114263;-78
2023/06/25 12:30:52;;;;;;;8.95;7.20;;;25.40;38.90;;;;;;6149840;22;114913;-80
2023/06/25 12:33:22;;;;;;;8.55;7.65;;;25.30;39.00;;;;;;6146949;22;115129;-80
2023/06/25 12:35:49;;;;;;;10.73;7.25;;;25.30;39.70;;;;;;6119615;22;114498;-78
2023/06/25 12:38:16;;;;;;;10.63;7.40;;;25.20;40.60;;;;;;6143561;22;114154;-79
2023/06/25 12:40:46;;;;;;;10.02;6.88;;;25.20;39.80;;;;;;6144766;22;114855;-79
2023/06/25 12:43:13;;;;;;;10.10;7.60;;;25.20;39.90;;;;;;6141531;22;114915;-79
2023/06/25 12:45:41;;;;;;;10.10;7.28;;;25.30;39.60;;;;;;6146307;22;114246;-79
2023/06/25 12:48:09;;;;;;;9.02;7.13;;;25.30;39.70;;;;;;6144299;22;114321;-79
2023/06/25 12:50:38;;;;;;;8.25;6.95;;;25.50;39.20;;;;;;6142347;22;114931;-79
2023/06/25 12:53:07;;;;;;;9.13;7.03;;;25.60;39.10;;;;;;6143506;22;114796;-79
2023/06/25 12:55:38;;;;;;;8.00;6.60;;;25.60;38.60;;;;;;6146262;22;114525;-79
2023/06/25 12:58:07;;;;;;;8.07;7.15;;;25.80;38.20;;;;;;6146069;22;114434;-79
2023/06/25 13:00:35;;;;;;;8.35;6.32;;;25.80;38.60;;;;;;6160030;22;115356;-78
2023/06/25 13:03:18;;;;;;;12.52;6.75;;;25.90;38.30;;;;;;6152123;22;114433;-79
2023/06/25 13:05:47;;;;;;;10.65;7.05;;;26.10;38.30;;;;;;6145690;22;114317;-78
2023/06/25 13:08:16;;;;;;;7.90;6.05;;;26.10;37.70;;;;;;6145212;22;115003;-78
2023/06/25 13:10:52;;;;;;;8.05;6.65;;;26.20;37.60;;;;;;6144504;22;115443;-79
2023/06/25 13:13:19;;;;;;;9.05;6.47;;;26.10;36.80;;;;;;6142845;22;117307;-79
2023/06/25 13:15:50;;;;;;;7.70;6.40;;;26.10;36.80;;;;;;6142446;22;114840;-79
2023/06/25 13:18:18;;;;;;;10.82;6.43;;;26.10;36.90;;;;;;6142839;22;114302;-78
2023/06/25 13:20:45;;;;;;;8.70;6.45;;;26.10;36.60;;;;;;6144323;22;115050;-78
2023/06/25 13:23:19;;;;;;;7.38;6.03;;;26.10;36.40;;;;;;6143863;22;114947;-78
2023/06/25 13:25:46;;;;;;;7.03;5.93;;;26.00;37.00;;;;;;6143571;22;114475;-78
2023/06/25 13:28:13;;;;;;;6.60;5.95;;;25.90;36.70;;;;;;6145647;22;114315;-79
2023/06/25 13:30:45;;;;;;;7.35;5.72;;;25.70;36.80;;;;;;6143055;22;115293;-78
2023/06/25 13:33:13;;;;;;;8.25;6.03;;;25.50;37.10;;;;;;6143994;22;114785;-78
2023/06/25 13:35:40;;;;;;;7.18;6.25;;;25.30;36.80;;;;;;6143846;22;114161;-78
2023/06/25 13:38:08;;;;;;;6.90;5.80;;;25.30;37.20;;;;;;6144574;22;114021;-78
2023/06/25 13:40:36;;;;;;;9.35;6.07;;;25.30;36.40;;;;;;6144589;22;115034;-78
2023/06/25 13:43:07;;;;;;;7.78;6.75;;;25.40;38.00;;;;;;6143990;22;114933;-78
2023/06/25 13:45:34;;;;;;;8.38;6.57;;;25.50;36.40;;;;;;6144696;22;115450;-79
2023/06/25 13:48:05;;;;;;;7.65;6.32;;;25.60;36.10;;;;;;6145509;22;114070;-77
2023/06/25 13:50:33;;;;;;;8.23;5.68;;;25.80;36.20;;;;;;6143969;22;115574;-79
2023/06/25 13:53:00;;;;;;;7.32;5.93;;;25.80;35.50;;;;;;6144112;22;114754;-77
2023/06/25 13:55:28;;;;;;;7.00;5.88;;;25.90;35.60;;;;;;6143256;22;114276;-79
2023/06/25 13:57:56;;;;;;;7.18;5.72;;;25.90;35.80;;;;;;6145476;22;114351;-78
2023/06/25 14:00:24;;;;;;;7.20;5.63;;;25.90;35.50;;;;;;6143919;22;114955;-78
2023/06/25 14:02:51;;;;;;;8.73;5.93;;;25.90;35.20;;;;;;6142797;22;114662;-77
2023/06/25 14:05:37;;;;;;;8.55;5.85;;;25.90;34.70;;;;;;6145738;22;114052;-79
2023/06/25 14:08:05;;;;;;;7.63;5.63;;;25.80;34.80;;;;;;6143206;22;114245;-79
2023/06/25 14:10:33;;;;;;;8.88;5.65;;;25.80;35.00;;;;;;6141754;22;115580;-79
2023/06/25 14:13:01;;;;;;;7.28;6.03;;;25.90;35.70;;;;;;6141570;22;114975;-78
2023/06/25 14:15:29;;;;;;;8.10;5.65;;;26.00;35.80;;;;;;6144020;22;114189;-78
2023/06/25 14:17:56;;;;;;;6.15;5.30;;;26.00;35.20;;;;;;6119395;22;114280;-77
2023/06/25 14:20:24;;;;;;;7.88;5.50;;;26.10;35.10;;;;;;6144235;22;114918;-77
2023/06/25 14:22:52;;;;;;;7.55;5.72;;;26.00;34.90;;;;;;6142113;22;115081;-77
2023/06/25 14:25:19;;;;;;;7.72;5.53;;;26.10;35.30;;;;;;6145478;22;114284;-77
2023/06/25 14:27:46;;;;;;;7.32;4.90;;;26.00;35.10;;;;;;6119404;22;114309;-77
2023/06/25 14:30:13;;;;;;;6.22;5.00;;;25.90;35.10;;;;;;6144226;22;115082;-77
2023/06/25 14:32:40;;;;;;;6.45;5.03;;;25.90;34.90;;;;;;6141780;22;114996;-79
2023/06/25 14:35:08;;;;;;;6.00;4.95;;;25.90;34.40;;;;;;6143848;22;114423;-79
2023/06/25 14:37:38;;;;;;;6.47;5.28;;;25.80;35.20;;;;;;6145341;22;114274;-79
2023/06/25 14:40:09;;;;;;;6.85;5.30;;;25.90;35.70;;;;;;6144085;22;114988;-79